Time;durP1;ratioP1;P1;durP2;ratioP2;P2;SDS_P1;SDS_P2;PMS_P1;PMS_P2;Temp;Humidity;BMP_temperature;BMP_pressure;BME280_temperature;BME280_humidity;BME280_pressure;Samples;Min_cycle;Max_cycle;Signal;HPM_P1;HPM_P2
2022/10/12 00:00:50;;;;;;;1.63;1.52;;;;;;;12.70;83.26;94027.75;5089439;28;20028;-33
2022/10/12 00:03:16;;;;;;;1.65;1.55;;;;;;;12.75;83.21;94026.84;5089823;28;20023;-33
2022/10/12 00:05:41;;;;;;;1.50;1.40;;;;;;;12.62;83.30;94007.59;5089670;28;20107;-33
2022/10/12 00:08:07;;;;;;;1.98;1.88;;;;;;;12.63;83.83;94022.91;5085237;28;20101;-33
2022/10/12 00:10:32;;;;;;;2.65;2.45;;;;;;;12.66;83.74;94021.84;5090108;28;20028;-33
2022/10/12 00:12:59;;;;;;;1.27;1.27;;;;;;;12.57;83.88;94017.56;5089772;28;20499;-33
2022/10/12 00:15:25;;;;;;;1.30;1.20;;;;;;;12.55;84.53;94019.38;5090960;28;20020;-33
2022/10/12 00:17:52;;;;;;;1.40;1.40;;;;;;;12.54;84.28;94026.94;5092577;28;20047;-33
2022/10/12 00:20:17;;;;;;;1.67;1.58;;;;;;;12.62;84.45;94013.88;5093408;28;20024;-33
2022/10/12 00:22:43;;;;;;;2.33;2.13;;;;;;;12.69;84.27;94015.94;5081768;28;20503;-33
2022/10/12 00:25:08;;;;;;;2.30;2.20;;;;;;;12.68;84.36;94014.47;5093518;28;20020;-33
2022/10/12 00:27:34;;;;;;;3.78;3.47;;;;;;;12.56;84.12;93998.72;5093484;28;20472;-33
2022/10/12 00:29:59;;;;;;;1.38;1.27;;;;;;;12.70;84.04;94006.34;5088619;28;20032;-33
2022/10/12 00:32:25;;;;;;;1.55;1.45;;;;;;;12.69;83.55;94013.16;5093861;28;20016;-33
2022/10/12 00:34:50;;;;;;;4.05;3.75;;;;;;;12.67;83.88;94006.69;5092550;28;20039;-33
2022/10/12 00:37:16;;;;;;;2.83;1.98;;;;;;;12.70;83.77;94016.66;5093138;28;20024;-34
2022/10/12 00:39:41;;;;;;;2.03;1.85;;;;;;;12.68;84.16;94008.16;5092820;28;20039;-33
2022/10/12 00:42:10;;;;;;;2.13;2.03;;;;;;;12.62;84.57;94005.56;5092753;28;20028;-33
2022/10/12 00:44:44;;;;;;;3.40;1.52;;;;;;;12.66;84.54;94010.75;5092738;28;20054;-33
2022/10/12 00:47:13;;;;;;;2.60;1.80;;;;;;;12.70;84.31;93998.03;5093157;28;20028;-33
2022/10/12 00:49:39;;;;;;;2.63;2.17;;;;;;;12.69;84.15;94004.13;5092790;28;20020;-33
2022/10/12 00:52:07;;;;;;;3.80;3.42;;;;;;;12.71;84.12;94007.81;5092816;28;20035;-33
2022/10/12 00:54:42;;;;;;;1.30;1.30;;;;;;;12.72;83.82;94000.97;5092716;28;20494;-33
2022/10/12 00:57:09;;;;;;;2.05;1.95;;;;;;;12.72;83.65;94000.25;5077892;28;20028;-33
2022/10/12 00:59:43;;;;;;;2.05;1.17;;;;;;;12.71;83.45;93996.00;5092582;28;20055;-33
2022/10/12 01:02:08;;;;;;;1.98;1.88;;;;;;;12.71;83.41;94001.53;5081031;28;20028;-33
2022/10/12 01:04:34;;;;;;;2.25;2.15;;;;;;;12.75;83.17;93996.38;5092421;28;20028;-33
2022/10/12 01:07:00;;;;;;;1.98;1.35;;;;;;;12.70;83.36;93994.50;5074662;28;20032;-34
2022/10/12 01:09:26;;;;;;;1.33;1.23;;;;;;;12.60;83.51;93996.31;5073454;28;20044;-33
2022/10/12 01:11:52;;;;;;;1.90;1.80;;;;;;;12.51;84.19;93994.81;5077163;28;20035;-33
2022/10/12 01:14:17;;;;;;;2.20;2.10;;;;;;;12.44;84.41;93992.75;5092457;28;20028;-33
2022/10/12 01:17:21;;;;;;;0.95;0.95;;;;;;;12.50;84.52;93996.09;5079690;28;20032;-33
2022/10/12 01:20:09;;;;;;;1.02;1.02;;;;;;;12.56;84.17;93990.41;5062813;28;20097;-33
2022/10/12 01:22:44;;;;;;;3.63;1.73;;;;;;;12.53;84.04;94000.56;5081208;28;20024;-33
2022/10/12 01:25:24;;;;;;;3.17;2.85;;;;;;;12.50;84.51;93992.59;5070670;28;20028;-33
2022/10/12 01:28:25;;;;;;;1.67;1.60;;;;;;;12.48;84.53;93993.13;5073547;28;20071;-33
2022/10/12 01:30:56;;;;;;;2.60;2.40;;;;;;;12.43;84.82;93998.84;5085582;28;20039;-33
2022/10/12 01:33:35;;;;;;;2.33;2.05;;;;;;;12.48;84.52;94000.69;5075191;28;20134;-33
2022/10/12 01:36:38;;;;;;;1.35;1.30;;;;;;;12.34;85.05;94002.13;5092132;28;20040;-33
2022/10/12 01:39:09;;;;;;;2.63;2.42;;;;;;;12.24;85.80;94001.13;5091054;28;20052;-33
2022/10/12 01:41:47;;;;;;;3.35;3.15;;;;;;;12.28;85.72;94001.56;5073903;28;20111;-33
2022/10/12 01:44:24;;;;;;;0.97;0.97;;;;;;;12.32;85.41;94002.69;5075260;28;20032;-34
2022/10/12 01:46:51;;;;;;;1.75;1.65;;;;;;;12.41;85.06;94004.19;5080310;28;20480;-33
2022/10/12 01:49:21;;;;;;;3.63;3.35;;;;;;;12.45;84.50;93999.03;5091553;28;20103;-33
2022/10/12 01:52:17;;;;;;;0.90;0.90;;;;;;;12.42;84.32;94009.19;5077030;28;20027;-33
2022/10/12 01:54:48;;;;;;;0.80;0.65;;;;;;;12.47;84.10;94013.09;5091554;28;20032;-33
2022/10/12 01:57:32;;;;;;;1.55;1.25;;;;;;;12.39;84.42;94007.50;5091841;28;20024;-33
2022/10/12 02:00:08;;;;;;;1.50;1.08;;;;;;;12.43;84.43;94010.66;5091494;28;20047;-34
2022/10/12 02:02:48;;;;;;;0.85;0.85;;;;;;;12.47;84.59;94002.00;5087959;28;20032;-33
2022/10/12 02:05:32;;;;;;;2.03;1.88;;;;;;;12.39;84.89;94009.53;5091444;28;20028;-33
2022/10/12 02:08:02;;;;;;;1.08;1.00;;;;;;;12.33;85.97;94017.25;5091082;28;20981;-33
2022/10/12 02:10:34;;;;;;;1.33;1.33;;;;;;;12.40;85.66;94014.53;5075372;28;20527;-33
2022/10/12 02:13:02;;;;;;;0.47;0.47;;;;;;;12.33;85.90;94014.47;5073777;28;20038;-33
2022/10/12 02:15:29;;;;;;;3.08;2.00;;;;;;;12.35;85.99;94014.66;5074380;28;20221;-33
2022/10/12 02:17:56;;;;;;;1.27;1.27;;;;;;;12.29;86.75;94023.16;5090845;28;20032;-33
2022/10/12 02:20:23;;;;;;;1.17;0.88;;;;;;;12.36;86.72;94018.94;5090553;28;20035;-33
2022/10/12 02:22:49;;;;;;;1.88;1.65;;;;;;;12.50;85.50;94023.78;5074616;28;20036;-33
2022/10/12 02:25:18;;;;;;;2.50;2.30;;;;;;;12.54;84.90;94026.22;5091004;28;20055;-33
2022/10/12 02:27:47;;;;;;;2.03;1.95;;;;;;;12.55;84.65;94024.94;5091173;28;20127;-33
2022/10/12 02:30:12;;;;;;;2.03;1.92;;;;;;;12.54;84.63;94015.16;5090853;28;20036;-33
2022/10/12 02:32:58;;;;;;;1.58;1.48;;;;;;;12.53;84.76;94016.44;5090860;28;20103;-33
2022/10/12 02:35:44;;;;;;;1.35;1.35;;;;;;;12.47;84.83;94019.38;5071046;28;20032;-33
2022/10/12 02:38:18;;;;;;;1.42;1.40;;;;;;;12.41;85.07;94010.47;5090154;28;20118;-33
2022/10/12 02:40:51;;;;;;;4.35;1.58;;;;;;;12.44;85.39;94017.69;5075363;28;20074;-33
2022/10/12 02:43:43;;;;;;;8.60;1.80;;;;;;;12.45;85.50;94010.13;5090573;28;20529;-33
2022/10/12 02:46:09;;;;;;;1.13;1.13;;;;;;;12.45;85.49;94018.44;5063051;28;20059;-33
2022/10/12 02:48:37;;;;;;;2.72;1.65;;;;;;;12.39;85.92;94009.53;5091103;28;20024;-34
2022/10/12 02:51:05;;;;;;;1.23;1.23;;;;;;;12.43;85.80;94015.47;5073279;28;20407;-33
2022/10/12 02:53:30;;;;;;;2.08;1.98;;;;;;;12.46;85.82;94023.41;5068435;28;20089;-33
2022/10/12 02:56:05;;;;;;;2.65;1.67;;;;;;;12.49;85.64;94013.28;5090376;28;20458;-33
2022/10/12 02:58:31;;;;;;;0.80;0.80;;;;;;;12.37;85.95;94014.88;5090854;28;20028;-33
2022/10/12 03:00:56;;;;;;;1.60;1.55;;;;;;;12.27;87.36;94017.41;5090531;28;20038;-33
2022/10/12 03:03:22;;;;;;;2.25;2.08;;;;;;;12.25;87.81;94016.47;5067354;28;20158;-33
2022/10/12 03:05:47;;;;;;;2.67;2.35;;;;;;;12.33;87.23;94012.47;5087953;28;20024;-33
2022/10/12 03:08:12;;;;;;;6.10;2.88;;;;;;;12.22;87.41;94017.56;5090057;28;20052;-33
2022/10/12 03:10:38;;;;;;;7.65;4.35;;;;;;;12.25;87.22;94017.22;5090282;28;20026;-33
2022/10/12 03:13:03;;;;;;;2.60;1.00;;;;;;;12.27;87.20;94016.66;5090342;28;20024;-34
2022/10/12 03:15:29;;;;;;;1.63;1.52;;;;;;;12.35;86.70;94018.19;5090320;28;20020;-33
2022/10/12 03:17:54;;;;;;;2.95;2.72;;;;;;;12.40;86.43;94011.00;5089601;28;20404;-33
2022/10/12 03:20:20;;;;;;;2.50;2.30;;;;;;;12.28;86.75;94010.56;5085847;28;20416;-33
2022/10/12 03:22:46;;;;;;;3.08;2.92;;;;;;;12.24;87.31;94012.97;5089774;28;20030;-33
2022/10/12 03:25:11;;;;;;;2.33;2.05;;;;;;;12.31;86.91;94020.56;5089693;28;20284;-33
2022/10/12 03:27:36;;;;;;;1.48;1.48;;;;;;;12.28;87.25;94012.63;5087986;28;20036;-33
2022/10/12 03:30:02;;;;;;;3.08;2.85;;;;;;;12.35;86.91;94014.66;5090099;28;20491;-33
2022/10/12 03:32:28;;;;;;;1.63;1.52;;;;;;;12.46;86.62;94012.34;5090396;28;20451;-33
2022/10/12 03:34:53;;;;;;;4.82;3.78;;;;;;;12.46;87.05;94017.88;5090119;28;20051;-33
2022/10/12 03:37:19;;;;;;;1.77;1.67;;;;;;;12.46;87.15;94017.13;5089962;28;20024;-33
2022/10/12 03:39:45;;;;;;;2.60;2.45;;;;;;;12.38;87.21;94021.91;5089586;28;20024;-33
2022/10/12 03:42:10;;;;;;;3.53;3.28;;;;;;;12.33;87.57;94017.25;5089814;28;20504;-33
2022/10/12 03:44:36;;;;;;;4.95;4.53;;;;;;;12.40;87.14;94020.06;5089871;28;20034;-33
2022/10/12 03:47:01;;;;;;;3.67;3.38;;;;;;;12.47;86.76;94019.38;5090171;28;20035;-33
2022/10/12 03:49:27;;;;;;;1.83;1.75;;;;;;;12.52;86.21;94026.00;5090050;28;20119;-33
2022/10/12 03:51:53;;;;;;;5.90;3.28;;;;;;;12.49;86.22;94024.34;5093535;28;20032;-33
2022/10/12 03:54:18;;;;;;;1.63;1.52;;;;;;;12.50;85.91;94003.66;5093905;28;20412;-33
2022/10/12 03:56:43;;;;;;;2.53;2.42;;;;;;;12.56;85.93;94020.88;5094234;28;20126;-33
2022/10/12 03:59:09;;;;;;;8.52;2.83;;;;;;;12.47;86.53;94022.13;5093981;28;20028;-33
2022/10/12 04:01:34;;;;;;;2.80;2.60;;;;;;;12.47;86.95;94021.38;5093321;28;20408;-33
2022/10/12 04:04:00;;;;;;;2.55;2.35;;;;;;;12.46;87.19;94028.19;5093868;28;20081;-33
2022/10/12 04:06:25;;;;;;;2.50;2.35;;;;;;;12.43;87.06;94021.00;5092283;28;20061;-33
2022/10/12 04:08:51;;;;;;;2.63;1.77;;;;;;;12.31;87.67;94028.13;5093456;28;20044;-33
2022/10/12 04:11:16;;;;;;;3.63;2.75;;;;;;;12.40;87.73;94033.16;5093662;28;20096;-33
2022/10/12 04:13:42;;;;;;;2.40;2.05;;;;;;;12.38;87.43;94025.41;5094018;28;20066;-33
2022/10/12 04:16:08;;;;;;;2.28;2.17;;;;;;;12.32;87.94;94026.84;5085955;28;20028;-33
2022/10/12 04:18:33;;;;;;;1.73;1.63;;;;;;;12.37;88.03;94025.94;5071789;28;20081;-33
2022/10/12 04:21:00;;;;;;;1.90;1.80;;;;;;;12.36;87.99;94027.25;5094004;28;20385;-33
2022/10/12 04:23:25;;;;;;;1.83;1.77;;;;;;;12.31;87.70;94015.03;5093869;28;20031;-33
2022/10/12 04:25:51;;;;;;;3.08;2.88;;;;;;;12.47;87.53;94038.00;5092661;28;20024;-33
2022/10/12 04:28:16;;;;;;;2.13;2.03;;;;;;;12.50;87.50;94034.13;5093622;28;20020;-33
2022/10/12 04:30:42;;;;;;;3.30;1.65;;;;;;;12.53;87.04;94033.03;5093189;28;20023;-33
2022/10/12 04:33:07;;;;;;;3.63;3.13;;;;;;;12.54;87.15;94037.31;5093425;28;20028;-33
2022/10/12 04:35:33;;;;;;;3.35;3.08;;;;;;;12.53;87.15;94039.34;5093167;28;20024;-33
2022/10/12 04:37:58;;;;;;;1.30;1.30;;;;;;;12.49;87.45;94032.66;5093317;28;20028;-33
2022/10/12 04:40:24;;;;;;;2.72;2.63;;;;;;;12.53;87.48;94035.81;5092969;28;20577;-34
2022/10/12 04:42:49;;;;;;;3.70;2.80;;;;;;;12.52;87.45;94037.09;5093308;28;20035;-34
2022/10/12 04:45:15;;;;;;;3.25;3.08;;;;;;;12.56;87.26;94031.97;5092964;28;20040;-34
2022/10/12 04:47:40;;;;;;;2.53;2.33;;;;;;;12.55;86.79;94033.22;5092644;28;20047;-34
2022/10/12 04:50:06;;;;;;;1.10;1.08;;;;;;;12.52;87.30;94039.84;5092808;28;20122;-33
2022/10/12 04:52:32;;;;;;;2.80;1.15;;;;;;;12.55;87.28;94045.06;5093203;28;20054;-33
2022/10/12 04:54:57;;;;;;;1.58;1.48;;;;;;;12.56;87.13;94048.56;5092570;28;20492;-33
2022/10/12 04:57:23;;;;;;;3.05;2.85;;;;;;;12.56;87.16;94046.53;5092582;28;20035;-33
2022/10/12 04:59:48;;;;;;;3.55;3.00;;;;;;;12.52;87.29;94051.69;5093054;28;20032;-33
2022/10/12 05:02:14;;;;;;;1.88;1.77;;;;;;;12.56;87.14;94054.13;5092760;28;20036;-33
2022/10/12 05:04:39;;;;;;;1.73;1.60;;;;;;;12.58;86.85;94049.50;5092545;28;20051;-33
2022/10/12 05:07:05;;;;;;;2.40;2.20;;;;;;;12.48;86.98;94039.47;5086650;28;20031;-33
2022/10/12 05:09:30;;;;;;;2.45;2.35;;;;;;;12.40;86.91;94038.69;5092470;28;20044;-33
2022/10/12 05:11:56;;;;;;;3.60;2.05;;;;;;;12.59;86.30;94053.00;5092642;28;20024;-33
2022/10/12 05:14:21;;;;;;;3.28;3.08;;;;;;;12.66;85.88;94049.53;5074823;28;20039;-34
2022/10/12 05:16:47;;;;;;;3.00;2.58;;;;;;;12.62;86.01;94052.66;5091892;28;20016;-34
2022/10/12 05:19:12;;;;;;;4.03;3.47;;;;;;;12.67;85.88;94051.00;5092194;28;20031;-34
2022/10/12 05:21:39;;;;;;;3.03;2.85;;;;;;;12.57;86.45;94052.81;5092593;28;20168;-34
2022/10/12 05:24:05;;;;;;;1.80;1.67;;;;;;;12.52;87.00;94053.72;5092319;28;20462;-34
2022/10/12 05:26:30;;;;;;;1.77;1.67;;;;;;;12.52;87.51;94057.22;5092178;28;20024;-34
2022/10/12 05:28:56;;;;;;;1.60;1.48;;;;;;;12.58;87.30;94066.13;5092071;28;20073;-34
2022/10/12 05:31:21;;;;;;;1.90;1.80;;;;;;;12.68;86.79;94058.78;5092013;28;20538;-34
2022/10/12 05:33:47;;;;;;;1.98;1.88;;;;;;;12.68;86.07;94053.25;5092279;28;20114;-34
2022/10/12 05:36:12;;;;;;;2.13;1.67;;;;;;;12.77;86.00;94065.84;5092116;28;20028;-34
2022/10/12 05:38:38;;;;;;;2.15;1.98;;;;;;;12.73;86.00;94071.00;5092331;28;20549;-34
2022/10/12 05:41:03;;;;;;;2.90;2.60;;;;;;;12.59;86.19;94062.06;5091379;28;20043;-34
2022/10/12 05:43:29;;;;;;;1.92;1.83;;;;;;;12.65;86.60;94073.72;5092141;28;20032;-34
2022/10/12 05:45:54;;;;;;;5.43;3.88;;;;;;;12.79;86.50;94072.31;5091500;28;20032;-34
2022/10/12 05:48:20;;;;;;;1.95;1.85;;;;;;;12.82;86.50;94073.97;5091842;28;20020;-34
2022/10/12 05:50:45;;;;;;;1.85;1.75;;;;;;;12.83;86.66;94077.50;5091542;28;20024;-34
2022/10/12 05:53:11;;;;;;;11.38;4.80;;;;;;;12.88;86.47;94087.69;5091856;28;20066;-34
2022/10/12 05:55:36;;;;;;;3.00;2.65;;;;;;;12.92;86.20;94077.72;5091535;28;20019;-34
2022/10/12 05:58:02;;;;;;;1.13;1.13;;;;;;;12.99;85.42;94079.03;5091955;28;20480;-34
2022/10/12 06:00:27;;;;;;;8.32;5.15;;;;;;;12.89;85.80;94091.91;5091221;28;20399;-34
2022/10/12 06:02:52;;;;;;;1.90;1.80;;;;;;;13.00;85.82;94088.09;5091495;28;20032;-34
2022/10/12 06:05:18;;;;;;;3.72;3.42;;;;;;;13.02;85.81;94091.78;5091579;28;20031;-34
2022/10/12 06:07:43;;;;;;;3.00;1.75;;;;;;;13.02;86.36;94094.56;5091231;28;20040;-34
2022/10/12 06:10:09;;;;;;;4.00;3.20;;;;;;;12.92;86.59;94088.81;5084358;28;20487;-34
2022/10/12 06:12:34;;;;;;;2.40;2.28;;;;;;;13.03;86.75;94107.13;5090138;28;20031;-34
2022/10/12 06:15:00;;;;;;;1.85;1.75;;;;;;;13.01;86.99;94103.44;5091219;28;20071;-34
2022/10/12 06:17:25;;;;;;;4.40;3.83;;;;;;;13.05;87.17;94107.38;5091243;28;20032;-34
2022/10/12 06:19:51;;;;;;;1.60;1.52;;;;;;;13.02;87.23;94105.66;5090743;28;20479;-34
2022/10/12 06:22:16;;;;;;;4.32;3.33;;;;;;;13.04;87.27;94110.66;5091500;28;20028;-34
2022/10/12 06:24:42;;;;;;;3.15;2.83;;;;;;;13.12;86.85;94111.44;5091317;28;20507;-34
2022/10/12 06:27:08;;;;;;;2.20;2.10;;;;;;;13.17;86.23;94108.50;5090906;28;20019;-34
2022/10/12 06:29:34;;;;;;;1.73;1.63;;;;;;;13.16;85.52;94103.50;5090852;28;20050;-34
2022/10/12 06:32:00;;;;;;;2.03;1.92;;;;;;;13.30;85.26;94116.66;5090857;28;20443;-34
2022/10/12 06:34:25;;;;;;;4.47;4.18;;;;;;;13.34;84.82;94113.56;5091388;28;20028;-34
2022/10/12 06:36:51;;;;;;;1.92;1.50;;;;;;;13.33;84.93;94112.06;5090771;28;20516;-34
2022/10/12 06:39:16;;;;;;;8.73;5.82;;;;;;;13.26;85.40;94112.78;5090558;28;20077;-34
2022/10/12 06:41:42;;;;;;;4.78;2.67;;;;;;;13.11;85.39;94087.78;5090358;28;20043;-34
2022/10/12 06:44:08;;;;;;;5.30;4.85;;;;;;;13.37;84.99;94115.97;5088803;28;20024;-34
2022/10/12 06:46:33;;;;;;;5.10;4.70;;;;;;;13.40;84.36;94120.41;5090613;28;20456;-34
2022/10/12 06:48:59;;;;;;;2.97;2.78;;;;;;;13.44;84.40;94128.38;5076397;28;20039;-34
2022/10/12 06:51:24;;;;;;;2.47;1.90;;;;;;;13.47;83.81;94128.00;5090344;28;20488;-34
2022/10/12 06:53:53;;;;;;;2.55;2.45;;;;;;;13.50;82.37;94129.69;5090515;28;20093;-34
2022/10/12 06:56:19;;;;;;;2.08;1.98;;;;;;;13.49;81.38;94125.41;5090864;28;20062;-34
2022/10/12 06:58:44;;;;;;;1.75;1.65;;;;;;;13.41;82.33;94132.97;5086313;28;20056;-34
2022/10/12 07:01:10;;;;;;;1.38;1.27;;;;;;;13.41;82.46;94138.53;5090393;28;20039;-34
2022/10/12 07:03:35;;;;;;;4.47;4.18;;;;;;;13.53;82.10;94133.38;5090326;28;20066;-34
2022/10/12 07:06:12;;;;;;;5.35;3.22;;;;;;;13.52;81.64;94129.88;5090713;28;20030;-34
2022/10/12 07:08:38;;;;;;;2.08;1.98;;;;;;;13.61;80.40;94140.44;5089894;28;20052;-34
2022/10/12 07:11:05;;;;;;;4.75;1.77;;;;;;;13.61;80.42;94140.44;5089849;28;20028;-34
2022/10/12 07:13:32;;;;;;;1.73;1.65;;;;;;;13.60;80.79;94150.03;5090449;28;20027;-34
2022/10/12 07:15:58;;;;;;;1.73;1.63;;;;;;;13.62;80.05;94146.72;5089807;28;20028;-34
2022/10/12 07:18:23;;;;;;;4.50;2.20;;;;;;;13.53;79.80;94133.38;5089641;28;20529;-34
2022/10/12 07:20:49;;;;;;;1.88;1.77;;;;;;;13.60;80.70;94138.94;5089870;28;20020;-34
2022/10/12 07:23:15;;;;;;;1.83;1.73;;;;;;;13.62;81.14;94141.91;5090349;28;20085;-34
2022/10/12 07:25:46;;;;;;;1.73;1.52;;;;;;;13.65;80.43;94140.81;5085469;28;20036;-34
2022/10/12 07:28:12;;;;;;;3.40;3.15;;;;;;;13.64;80.19;94135.81;5089626;28;20507;-34
2022/10/12 07:30:37;;;;;;;2.83;2.63;;;;;;;13.72;80.91;94142.13;5089032;28;20027;-34
2022/10/12 07:33:03;;;;;;;2.60;2.40;;;;;;;13.79;80.76;94141.38;5089923;28;20032;-34
2022/10/12 07:35:28;;;;;;;2.53;1.98;;;;;;;13.84;80.72;94143.22;5090126;28;20035;-34
2022/10/12 07:37:54;;;;;;;2.08;1.67;;;;;;;13.85;80.55;94141.94;5089782;28;20027;-34
2022/10/12 07:40:19;;;;;;;4.03;1.58;;;;;;;13.81;80.25;94135.28;5089850;28;20549;-34
2022/10/12 07:42:44;;;;;;;0.60;0.60;;;;;;;13.92;80.31;94149.53;5088430;28;20408;-34
2022/10/12 07:45:10;;;;;;;4.68;3.20;;;;;;;13.95;80.14;94148.41;5090181;28;20032;-34
2022/10/12 07:47:35;;;;;;;1.83;1.67;;;;;;;13.99;79.55;94143.25;5090100;28;20028;-34
2022/10/12 07:50:01;;;;;;;3.05;2.40;;;;;;;13.95;79.88;94147.69;5089366;28;20427;-34
2022/10/12 07:52:27;;;;;;;2.15;1.90;;;;;;;13.97;79.11;94139.56;5089929;28;20126;-34
2022/10/12 07:54:52;;;;;;;2.72;2.50;;;;;;;14.01;79.11;94142.72;5084312;28;20036;-34
2022/10/12 07:57:18;;;;;;;3.63;3.15;;;;;;;14.02;79.40;94138.63;5089640;28;20040;-34
2022/10/12 07:59:43;;;;;;;2.72;2.53;;;;;;;14.05;79.73;94143.06;5089908;28;20063;-34
2022/10/12 08:02:10;;;;;;;3.90;3.60;;;;;;;14.05;79.62;94148.63;5089404;28;20476;-34
2022/10/12 08:04:36;;;;;;;2.45;2.25;;;;;;;14.01;79.66;94143.44;5089743;28;20016;-34
2022/10/12 08:07:01;;;;;;;1.70;1.63;;;;;;;14.05;79.42;94138.25;5089378;28;20031;-34
2022/10/12 08:09:27;;;;;;;1.10;1.05;;;;;;;14.05;79.53;94135.50;5089344;28;20051;-34
2022/10/12 08:11:54;;;;;;;1.67;1.60;;;;;;;14.06;79.60;94147.31;5072039;28;20024;-34
2022/10/12 08:14:20;;;;;;;2.58;2.22;;;;;;;14.09;79.14;94143.44;5083672;28;20054;-34
2022/10/12 08:16:45;;;;;;;2.75;2.50;;;;;;;14.16;79.32;94148.25;5087424;28;20119;-34
2022/10/12 08:19:11;;;;;;;3.20;3.00;;;;;;;14.19;79.75;94144.34;5086709;28;20556;-34
2022/10/12 08:21:37;;;;;;;2.05;1.95;;;;;;;14.23;79.35;94153.06;5089611;28;20032;-34
2022/10/12 08:24:02;;;;;;;2.15;2.05;;;;;;;14.25;79.54;94153.25;5089265;28;20036;-34
2022/10/12 08:26:29;;;;;;;3.35;3.10;;;;;;;14.29;79.10;94151.59;5065237;28;20103;-34
2022/10/12 08:28:54;;;;;;;2.03;1.92;;;;;;;14.16;78.97;94124.00;5087559;28;20035;-34
2022/10/12 08:31:19;;;;;;;1.80;1.70;;;;;;;14.32;79.15;94156.06;5089413;28;20020;-34
2022/10/12 08:33:45;;;;;;;2.55;2.22;;;;;;;14.26;79.18;94152.69;5089315;28;20039;-34
2022/10/12 08:36:11;;;;;;;2.67;2.03;;;;;;;14.31;79.03;94162.19;5090301;28;20028;-34
2022/10/12 08:38:37;;;;;;;2.00;1.88;;;;;;;14.29;78.86;94157.16;5093423;28;20028;-34
2022/10/12 08:41:10;;;;;;;1.40;1.33;;;;;;;14.24;78.93;94158.06;5080897;28;20051;-34
2022/10/12 08:43:59;;;;;;;0.70;0.70;;;;;;;14.22;79.11;94159.91;5077461;28;20028;-34
2022/10/12 08:46:26;;;;;;;0.73;0.73;;;;;;;14.24;78.71;94160.09;5079726;28;20047;-34
2022/10/12 08:49:01;;;;;;;2.38;1.45;;;;;;;14.27;78.73;94161.78;5074867;28;20469;-34
2022/10/12 08:51:30;;;;;;;1.52;1.38;;;;;;;14.28;78.94;94161.22;5091551;28;20028;-34
2022/10/12 08:54:12;;;;;;;0.93;0.93;;;;;;;14.31;78.38;94156.63;5074257;28;20036;-34
2022/10/12 08:56:40;;;;;;;2.28;2.17;;;;;;;14.28;78.57;94161.22;5092519;28;20028;-34
2022/10/12 08:59:14;;;;;;;2.80;1.70;;;;;;;14.30;78.64;94161.44;5092916;28;20028;-34
2022/10/12 09:02:11;;;;;;;1.80;1.70;;;;;;;14.29;77.91;94167.53;5074808;28;20047;-34
2022/10/12 09:04:50;;;;;;;0.75;0.75;;;;;;;14.22;77.48;94157.16;5051747;28;20037;-34
2022/10/12 09:07:24;;;;;;;1.63;1.58;;;;;;;14.21;77.06;94155.66;5086415;28;20020;-34
2022/10/12 09:10:18;;;;;;;1.60;1.50;;;;;;;14.21;76.70;94161.94;5093091;28;20036;-34
2022/10/12 09:12:52;;;;;;;1.88;1.77;;;;;;;14.23;77.06;94161.38;5090054;28;20103;-34
2022/10/12 09:15:23;;;;;;;1.98;1.77;;;;;;;14.23;77.00;94164.91;5089580;28;20492;-34
2022/10/12 09:17:52;;;;;;;1.33;1.25;;;;;;;14.19;77.77;94163.78;5071439;28;20522;-34
2022/10/12 09:20:17;;;;;;;;;;;;;;;14.31;77.53;94164.94;5057906;28;20035;-34
2022/10/12 09:23:24;;;;;;;2.72;1.85;;;;;;;14.29;77.11;94162.00;5092485;28;19912;-34
2022/10/12 09:25:50;;;;;;;0.95;0.95;;;;;;;14.22;77.82;94165.47;5091953;28;20103;-34
2022/10/12 09:28:33;;;;;;;4.65;4.22;;;;;;;14.24;78.28;94162.88;5089512;28;20096;-34
2022/10/12 09:31:17;;;;;;;2.65;1.65;;;;;;;14.25;77.75;94162.31;5087132;28;20024;-34
2022/10/12 09:33:50;;;;;;;1.98;1.75;;;;;;;14.33;76.42;94159.56;5089235;28;20028;-34
2022/10/12 09:36:20;;;;;;;1.52;1.45;;;;;;;14.41;76.04;94160.31;5091923;28;20522;-34
2022/10/12 09:38:46;;;;;;;4.38;1.95;;;;;;;14.42;76.91;94159.03;5091506;28;20483;-34
2022/10/12 09:41:24;;;;;;;3.95;3.65;;;;;;;14.40;77.13;94156.78;5073220;28;20115;-34
2022/10/12 09:43:58;;;;;;;1.85;1.38;;;;;;;14.46;76.68;94159.38;5048911;28;20103;-34
2022/10/12 09:46:49;;;;;;;2.05;1.88;;;;;;;14.67;75.40;94159.16;5084627;28;20032;-34
2022/10/12 09:49:14;;;;;;;2.28;1.73;;;;;;;14.79;75.36;94157.50;5084410;28;20043;-34
2022/10/12 09:51:40;;;;;;;1.65;1.45;;;;;;;14.99;74.96;94162.78;5091185;28;20024;-34
2022/10/12 09:54:05;;;;;;;1.20;1.20;;;;;;;15.07;73.96;94132.91;5091572;28;20032;-34
2022/10/12 09:56:43;;;;;;;4.05;2.40;;;;;;;15.37;73.23;94150.78;5072972;28;20441;-34
2022/10/12 09:59:27;;;;;;;2.13;2.03;;;;;;;15.52;72.68;94151.50;5084100;28;20450;-34
2022/10/12 10:01:57;;;;;;;2.85;2.33;;;;;;;15.66;71.41;94151.97;5085212;28;20028;-34
2022/10/12 10:04:24;;;;;;;2.50;2.30;;;;;;;15.82;70.63;94153.38;5090974;28;20050;-34
2022/10/12 10:06:50;;;;;;;0.85;0.80;;;;;;;15.76;68.58;94144.50;5091591;28;20430;-34
2022/10/12 10:09:35;;;;;;;1.05;1.05;;;;;;;15.95;69.45;94147.53;5073331;28;20042;-34
2022/10/12 10:12:21;;;;;;;2.25;1.65;;;;;;;16.18;69.08;94139.72;5090730;28;20031;-34
2022/10/12 10:14:47;;;;;;;1.77;1.67;;;;;;;16.24;69.06;94139.50;5073408;28;20020;-34
2022/10/12 10:17:14;;;;;;;6.78;2.08;;;;;;;16.10;68.88;94127.16;5074649;28;20675;-34
2022/10/12 10:19:48;;;;;;;1.17;1.17;;;;;;;16.03;69.51;94127.97;5072014;28;20093;-34
2022/10/12 10:22:13;;;;;;;3.88;2.30;;;;;;;16.03;68.01;94131.50;5075742;28;20047;-34
2022/10/12 10:24:39;;;;;;;1.33;1.27;;;;;;;16.11;68.22;94134.22;5072599;28;20059;-34
2022/10/12 10:27:05;;;;;;;3.08;2.78;;;;;;;16.01;67.98;94108.28;5088732;28;20035;-34
2022/10/12 10:29:35;;;;;;;2.05;1.95;;;;;;;16.00;68.55;94121.50;5089378;28;20553;-34
2022/10/12 10:32:25;;;;;;;2.80;1.77;;;;;;;16.10;69.49;94119.56;5090378;28;20547;-34
2022/10/12 10:35:12;;;;;;;1.90;1.67;;;;;;;16.04;69.55;94119.06;5091048;28;20403;-34
2022/10/12 10:37:44;;;;;;;4.32;1.38;;;;;;;16.18;69.58;94111.88;5090864;28;20016;-34
2022/10/12 10:40:22;;;;;;;1.85;1.67;;;;;;;16.20;68.33;94106.47;5085318;28;20027;-34
2022/10/12 10:43:02;;;;;;;1.27;1.27;;;;;;;16.34;67.88;94107.66;5086579;28;20025;-34
2022/10/12 10:45:42;;;;;;;2.17;1.98;;;;;;;16.31;68.17;94106.00;5073056;28;20415;-34
2022/10/12 10:48:09;;;;;;;1.88;1.75;;;;;;;16.34;67.62;94101.34;5072616;28;20023;-34
2022/10/12 10:50:37;;;;;;;2.15;1.90;;;;;;;16.43;67.76;94095.88;5072518;28;20384;-34
2022/10/12 10:53:18;;;;;;;2.25;2.05;;;;;;;16.61;65.51;94093.88;5072414;28;20026;-34
2022/10/12 10:55:48;;;;;;;2.22;2.05;;;;;;;16.48;66.35;94094.16;5074272;28;20568;-34
2022/10/12 10:58:41;;;;;;;1.08;1.08;;;;;;;16.25;67.57;94077.63;5072200;28;20086;-34
2022/10/12 11:01:59;;;;;;;2.13;2.03;;;;;;;16.34;68.60;94090.94;5089643;28;20040;-34
2022/10/12 11:04:42;;;;;;;2.40;2.15;;;;;;;16.50;66.94;94088.78;4983302;28;20034;-34
2022/10/12 11:07:30;;;;;;;1.00;0.98;;;;;;;16.60;68.10;94089.59;5065354;28;20114;-34
2022/10/12 11:10:02;;;;;;;1.48;1.33;;;;;;;16.72;68.56;94095.44;5072024;28;20068;-34
2022/10/12 11:12:36;;;;;;;4.25;1.52;;;;;;;16.71;67.02;94094.69;5090406;28;20016;-34
2022/10/12 11:15:21;;;;;;;2.60;2.40;;;;;;;16.71;66.85;94085.59;5072362;28;20024;-34
2022/10/12 11:17:53;;;;;;;1.30;1.27;;;;;;;16.88;66.54;94085.56;5085748;28;20050;-34
2022/10/12 11:20:19;;;;;;;1.23;1.23;;;;;;;17.01;65.76;94083.19;5072909;28;20035;-34
2022/10/12 11:22:52;;;;;;;1.77;1.75;;;;;;;17.04;64.62;94084.09;5090015;28;20028;-34
2022/10/12 11:25:17;;;;;;;2.15;2.00;;;;;;;17.01;64.13;94079.66;5071617;28;20036;-34
2022/10/12 11:27:43;;;;;;;2.47;2.28;;;;;;;17.11;63.19;94070.03;5090352;28;20027;-34
2022/10/12 11:30:18;;;;;;;2.28;2.08;;;;;;;17.16;64.01;94071.84;5090233;28;20457;-34
2022/10/12 11:32:44;;;;;;;1.88;1.75;;;;;;;17.28;62.97;94070.00;5090437;28;20506;-34
2022/10/12 11:35:15;;;;;;;1.05;1.05;;;;;;;17.14;64.01;94074.47;5076086;28;20111;-34
2022/10/12 11:37:50;;;;;;;2.78;2.45;;;;;;;17.00;64.40;94073.34;5089815;28;20036;-34
2022/10/12 11:40:24;;;;;;;2.72;2.35;;;;;;;16.93;64.80;94070.66;5071119;28;20028;-34
2022/10/12 11:42:52;;;;;;;2.58;1.90;;;;;;;17.07;63.86;94074.56;5072327;28;20113;-34
2022/10/12 11:45:22;;;;;;;1.05;1.02;;;;;;;17.06;63.70;94071.06;5088487;28;20484;-34